Terminal Aerodrome Forecast
Issued by NWS St Louis, MO

Home | Current Version | Previous Version | Text Only | Print | Product List | Glossary On
Versions: 1 2 3 4 5 6 7 8 9 10 11 12 13 14
208
FTUS43 KLSX 241136
TAFCOU
TAF
KCOU 241136Z 2412/2512 36006KT P6SM BKN015
     FM241300 36007KT P6SM SCT030
     FM241900 36009KT P6SM SCT130=

USA.gov is the U.S. government's official web portal to all federal, state and local government web resources and services.